sensor_id;sensor_type;location;lat;lon;timestamp;temperature;humidity
42913;DHT22;50720;54.324;18.558;2023-01-29T00:01:11;0.80;99.90
42913;DHT22;50720;54.324;18.558;2023-01-29T00:03:41;0.90;99.90
42913;DHT22;50720;54.324;18.558;2023-01-29T00:06:11;0.80;99.90
42913;DHT22;50720;54.324;18.558;2023-01-29T00:08:42;0.90;99.90
42913;DHT22;50720;54.324;18.558;2023-01-29T00:11:12;0.90;99.90
42913;DHT22;50720;54.324;18.558;2023-01-29T00:13:43;0.90;99.90
42913;DHT22;50720;54.324;18.558;2023-01-29T00:16:12;0.90;99.90
42913;DHT22;50720;54.324;18.558;2023-01-29T00:18:43;0.90;99.90
42913;DHT22;50720;54.324;18.558;2023-01-29T00:21:13;0.90;99.90
42913;DHT22;50720;54.324;18.558;2023-01-29T00:23:45;1.00;99.90
42913;DHT22;50720;54.324;18.558;2023-01-29T00:26:14;0.90;99.90
42913;DHT22;50720;54.324;18.558;2023-01-29T00:28:44;1.00;99.90
42913;DHT22;50720;54.324;18.558;2023-01-29T00:31:15;0.90;99.90
42913;DHT22;50720;54.324;18.558;2023-01-29T00:33:46;0.90;99.90
42913;DHT22;50720;54.324;18.558;2023-01-29T00:36:17;1.00;99.90
42913;DHT22;50720;54.324;18.558;2023-01-29T00:38:54;1.00;99.90
42913;DHT22;50720;54.324;18.558;2023-01-29T00:41:26;1.00;99.90
42913;DHT22;50720;54.324;18.558;2023-01-29T00:44:13;1.00;99.90
42913;DHT22;50720;54.324;18.558;2023-01-29T00:47:01;1.00;99.90
42913;DHT22;50720;54.324;18.558;2023-01-29T00:49:31;1.00;99.90
42913;DHT22;50720;54.324;18.558;2023-01-29T00:52:00;1.00;99.90
42913;DHT22;50720;54.324;18.558;2023-01-29T00:54:48;1.00;99.90
42913;DHT22;50720;54.324;18.558;2023-01-29T00:57:17;1.00;99.90
42913;DHT22;50720;54.324;18.558;2023-01-29T00:59:47;1.00;99.90
42913;DHT22;50720;54.324;18.558;2023-01-29T01:02:16;1.00;99.90
42913;DHT22;50720;54.324;18.558;2023-01-29T01:05:04;1.00;99.90
42913;DHT22;50720;54.324;18.558;2023-01-29T01:07:34;0.90;99.90
42913;DHT22;50720;54.324;18.558;2023-01-29T01:10:06;0.90;99.90
42913;DHT22;50720;54.324;18.558;2023-01-29T01:12:53;0.90;99.90
42913;DHT22;50720;54.324;18.558;2023-01-29T01:15:24;0.90;99.90
42913;DHT22;50720;54.324;18.558;2023-01-29T01:17:54;0.80;99.90
42913;DHT22;50720;54.324;18.558;2023-01-29T01:20:25;0.80;99.90
42913;DHT22;50720;54.324;18.558;2023-01-29T01:22:56;0.80;99.90
42913;DHT22;50720;54.324;18.558;2023-01-29T01:25:27;0.70;99.90
42913;DHT22;50720;54.324;18.558;2023-01-29T01:27:58;0.60;99.90
42913;DHT22;50720;54.324;18.558;2023-01-29T01:30:28;0.60;99.90
42913;DHT22;50720;54.324;18.558;2023-01-29T01:32:59;0.60;99.90
42913;DHT22;50720;54.324;18.558;2023-01-29T01:35:29;0.50;99.90
42913;DHT22;50720;54.324;18.558;2023-01-29T01:37:58;0.50;99.90
42913;DHT22;50720;54.324;18.558;2023-01-29T01:40:29;0.50;99.90
42913;DHT22;50720;54.324;18.558;2023-01-29T01:42:59;0.50;99.90
42913;DHT22;50720;54.324;18.558;2023-01-29T01:45:30;0.50;99.90
42913;DHT22;50720;54.324;18.558;2023-01-29T01:48:03;0.50;99.90
42913;DHT22;50720;54.324;18.558;2023-01-29T01:50:38;0.50;99.90
42913;DHT22;50720;54.324;18.558;2023-01-29T01:53:11;0.50;99.90
42913;DHT22;50720;54.324;18.558;2023-01-29T01:55:44;0.50;99.90
42913;DHT22;50720;54.324;18.558;2023-01-29T01:58:18;0.50;99.90
42913;DHT22;50720;54.324;18.558;2023-01-29T02:00:50;0.50;99.90
42913;DHT22;50720;54.324;18.558;2023-01-29T02:03:21;0.50;99.90
42913;DHT22;50720;54.324;18.558;2023-01-29T02:06:09;0.50;99.90
42913;DHT22;50720;54.324;18.558;2023-01-29T02:08:59;0.50;99.90
42913;DHT22;50720;54.324;18.558;2023-01-29T02:11:49;0.50;99.90
42913;DHT22;50720;54.324;18.558;2023-01-29T02:14:19;0.50;99.90
42913;DHT22;50720;54.324;18.558;2023-01-29T02:16:49;0.50;99.90
42913;DHT22;50720;54.324;18.558;2023-01-29T02:19:23;0.50;99.90
42913;DHT22;50720;54.324;18.558;2023-01-29T02:22:25;0.50;99.90
42913;DHT22;50720;54.324;18.558;2023-01-29T02:28:31;0.60;99.90
42913;DHT22;50720;54.324;18.558;2023-01-29T02:31:09;0.50;99.90
42913;DHT22;50720;54.324;18.558;2023-01-29T02:33:47;0.70;99.90
42913;DHT22;50720;54.324;18.558;2023-01-29T02:36:29;0.70;99.90
42913;DHT22;50720;54.324;18.558;2023-01-29T02:39:06;0.70;99.90
42913;DHT22;50720;54.324;18.558;2023-01-29T02:41:44;0.80;99.90
42913;DHT22;50720;54.324;18.558;2023-01-29T02:44:20;0.80;99.90
42913;DHT22;50720;54.324;18.558;2023-01-29T02:46:56;0.80;99.90
42913;DHT22;50720;54.324;18.558;2023-01-29T02:49:33;0.80;99.90
42913;DHT22;50720;54.324;18.558;2023-01-29T02:52:08;0.80;99.90
42913;DHT22;50720;54.324;18.558;2023-01-29T02:54:45;0.80;99.90
42913;DHT22;50720;54.324;18.558;2023-01-29T02:57:19;0.80;99.90
42913;DHT22;50720;54.324;18.558;2023-01-29T02:59:54;0.90;99.90
42913;DHT22;50720;54.324;18.558;2023-01-29T03:02:29;0.90;99.90
42913;DHT22;50720;54.324;18.558;2023-01-29T03:05:03;0.90;99.90
42913;DHT22;50720;54.324;18.558;2023-01-29T03:07:37;0.90;99.90
42913;DHT22;50720;54.324;18.558;2023-01-29T03:10:17;1.00;99.90
42913;DHT22;50720;54.324;18.558;2023-01-29T03:12:53;1.00;99.90
42913;DHT22;50720;54.324;18.558;2023-01-29T03:15:28;1.10;99.90
42913;DHT22;50720;54.324;18.558;2023-01-29T03:18:02;1.10;99.90
42913;DHT22;50720;54.324;18.558;2023-01-29T03:20:36;1.10;99.90
42913;DHT22;50720;54.324;18.558;2023-01-29T03:23:20;1.10;99.90
42913;DHT22;50720;54.324;18.558;2023-01-29T03:26:05;1.10;99.90
42913;DHT22;50720;54.324;18.558;2023-01-29T03:28:52;1.10;99.90
42913;DHT22;50720;54.324;18.558;2023-01-29T03:31:41;1.20;99.90
42913;DHT22;50720;54.324;18.558;2023-01-29T03:34:29;1.20;99.90
42913;DHT22;50720;54.324;18.558;2023-01-29T03:37:09;1.10;99.90
42913;DHT22;50720;54.324;18.558;2023-01-29T03:39:40;1.10;99.90
42913;DHT22;50720;54.324;18.558;2023-01-29T03:42:18;1.10;99.90
42913;DHT22;50720;54.324;18.558;2023-01-29T03:44:54;1.10;99.90
42913;DHT22;50720;54.324;18.558;2023-01-29T03:47:35;1.20;99.90
42913;DHT22;50720;54.324;18.558;2023-01-29T03:50:14;1.10;99.90
42913;DHT22;50720;54.324;18.558;2023-01-29T03:52:49;1.10;99.90
42913;DHT22;50720;54.324;18.558;2023-01-29T03:55:22;1.20;99.90
42913;DHT22;50720;54.324;18.558;2023-01-29T03:57:56;1.10;99.90
42913;DHT22;50720;54.324;18.558;2023-01-29T04:00:30;1.20;99.90
42913;DHT22;50720;54.324;18.558;2023-01-29T04:03:07;1.10;99.90
42913;DHT22;50720;54.324;18.558;2023-01-29T04:05:43;1.20;99.90
42913;DHT22;50720;54.324;18.558;2023-01-29T04:08:18;1.20;99.90
42913;DHT22;50720;54.324;18.558;2023-01-29T04:10:51;1.20;99.90
42913;DHT22;50720;54.324;18.558;2023-01-29T04:13:21;1.10;99.90
42913;DHT22;50720;54.324;18.558;2023-01-29T04:15:55;1.20;99.90
42913;DHT22;50720;54.324;18.558;2023-01-29T04:18:27;1.20;99.90
42913;DHT22;50720;54.324;18.558;2023-01-29T04:20:56;1.20;99.90
42913;DHT22;50720;54.324;18.558;2023-01-29T04:23:27;1.20;99.90
42913;DHT22;50720;54.324;18.558;2023-01-29T04:26:12;1.20;99.90
42913;DHT22;50720;54.324;18.558;2023-01-29T04:28:58;1.20;99.90
42913;DHT22;50720;54.324;18.558;2023-01-29T04:31:31;1.30;99.90
42913;DHT22;50720;54.324;18.558;2023-01-29T04:34:11;1.30;99.90
42913;DHT22;50720;54.324;18.558;2023-01-29T04:36:55;1.30;99.90
42913;DHT22;50720;54.324;18.558;2023-01-29T04:39:34;1.30;99.90
42913;DHT22;50720;54.324;18.558;2023-01-29T04:42:13;1.30;99.90
42913;DHT22;50720;54.324;18.558;2023-01-29T04:44:49;1.30;99.90
42913;DHT22;50720;54.324;18.558;2023-01-29T04:47:29;1.20;99.90
42913;DHT22;50720;54.324;18.558;2023-01-29T04:50:11;1.30;99.90
42913;DHT22;50720;54.324;18.558;2023-01-29T04:52:46;1.30;99.90
42913;DHT22;50720;54.324;18.558;2023-01-29T04:55:23;1.20;99.90
42913;DHT22;50720;54.324;18.558;2023-01-29T04:58:02;1.30;99.90
42913;DHT22;50720;54.324;18.558;2023-01-29T05:00:35;1.30;99.90
42913;DHT22;50720;54.324;18.558;2023-01-29T05:03:07;1.30;99.90
42913;DHT22;50720;54.324;18.558;2023-01-29T05:05:42;1.30;99.90
42913;DHT22;50720;54.324;18.558;2023-01-29T05:08:15;1.40;99.90
42913;DHT22;50720;54.324;18.558;2023-01-29T05:10:46;1.40;99.90
42913;DHT22;50720;54.324;18.558;2023-01-29T05:13:18;1.40;99.90
42913;DHT22;50720;54.324;18.558;2023-01-29T05:15:53;1.40;99.90
42913;DHT22;50720;54.324;18.558;2023-01-29T05:18:24;1.40;99.90
42913;DHT22;50720;54.324;18.558;2023-01-29T05:20:55;1.40;99.90
42913;DHT22;50720;54.324;18.558;2023-01-29T05:23:26;1.40;99.90
42913;DHT22;50720;54.324;18.558;2023-01-29T05:25:56;1.50;99.90
42913;DHT22;50720;54.324;18.558;2023-01-29T05:28:25;1.50;99.90
42913;DHT22;50720;54.324;18.558;2023-01-29T05:30:55;1.50;99.90
42913;DHT22;50720;54.324;18.558;2023-01-29T05:33:26;1.50;99.90
42913;DHT22;50720;54.324;18.558;2023-01-29T05:35:58;1.50;99.90
42913;DHT22;50720;54.324;18.558;2023-01-29T05:38:28;1.50;99.90
42913;DHT22;50720;54.324;18.558;2023-01-29T05:40:58;1.50;99.90
42913;DHT22;50720;54.324;18.558;2023-01-29T05:43:27;1.50;99.90
42913;DHT22;50720;54.324;18.558;2023-01-29T05:45:59;1.40;99.90
42913;DHT22;50720;54.324;18.558;2023-01-29T05:48:28;1.40;99.90
42913;DHT22;50720;54.324;18.558;2023-01-29T05:51:01;1.40;99.90
42913;DHT22;50720;54.324;18.558;2023-01-29T05:53:32;1.40;99.90
42913;DHT22;50720;54.324;18.558;2023-01-29T05:56:03;1.40;99.90
42913;DHT22;50720;54.324;18.558;2023-01-29T05:58:33;1.40;99.90
42913;DHT22;50720;54.324;18.558;2023-01-29T06:01:12;1.40;99.90
42913;DHT22;50720;54.324;18.558;2023-01-29T06:03:42;1.40;99.90
42913;DHT22;50720;54.324;18.558;2023-01-29T06:06:14;1.40;99.90
42913;DHT22;50720;54.324;18.558;2023-01-29T06:08:43;1.40;99.90
42913;DHT22;50720;54.324;18.558;2023-01-29T06:11:13;1.40;99.90
42913;DHT22;50720;54.324;18.558;2023-01-29T06:13:43;1.50;99.90
42913;DHT22;50720;54.324;18.558;2023-01-29T06:16:13;1.50;99.90
42913;DHT22;50720;54.324;18.558;2023-01-29T06:18:43;1.50;99.90
42913;DHT22;50720;54.324;18.558;2023-01-29T06:21:14;1.50;99.90
42913;DHT22;50720;54.324;18.558;2023-01-29T06:23:46;1.50;99.90
42913;DHT22;50720;54.324;18.558;2023-01-29T06:26:17;1.60;99.90
42913;DHT22;50720;54.324;18.558;2023-01-29T06:28:47;1.60;99.90
42913;DHT22;50720;54.324;18.558;2023-01-29T06:31:17;1.60;99.90
42913;DHT22;50720;54.324;18.558;2023-01-29T06:34:04;1.70;99.90
42913;DHT22;50720;54.324;18.558;2023-01-29T06:36:36;1.70;99.90
42913;DHT22;50720;54.324;18.558;2023-01-29T06:39:05;1.80;99.90
42913;DHT22;50720;54.324;18.558;2023-01-29T06:41:35;1.80;99.90
42913;DHT22;50720;54.324;18.558;2023-01-29T06:44:05;1.80;99.90
42913;DHT22;50720;54.324;18.558;2023-01-29T06:46:35;1.80;99.90
42913;DHT22;50720;54.324;18.558;2023-01-29T06:49:04;1.80;99.90
42913;DHT22;50720;54.324;18.558;2023-01-29T06:51:35;1.80;99.90
42913;DHT22;50720;54.324;18.558;2023-01-29T06:54:05;1.80;99.90
42913;DHT22;50720;54.324;18.558;2023-01-29T06:56:35;1.90;99.90
42913;DHT22;50720;54.324;18.558;2023-01-29T06:59:04;1.90;99.90
42913;DHT22;50720;54.324;18.558;2023-01-29T07:01:38;1.90;99.90
42913;DHT22;50720;54.324;18.558;2023-01-29T07:04:09;2.00;99.90
42913;DHT22;50720;54.324;18.558;2023-01-29T07:06:42;2.00;99.90
42913;DHT22;50720;54.324;18.558;2023-01-29T07:09:12;2.00;99.90
42913;DHT22;50720;54.324;18.558;2023-01-29T07:11:42;2.00;99.90
42913;DHT22;50720;54.324;18.558;2023-01-29T07:14:11;2.00;99.90
42913;DHT22;50720;54.324;18.558;2023-01-29T07:16:41;2.00;99.90
42913;DHT22;50720;54.324;18.558;2023-01-29T07:19:10;2.00;99.90
42913;DHT22;50720;54.324;18.558;2023-01-29T07:21:42;2.10;99.90
42913;DHT22;50720;54.324;18.558;2023-01-29T07:24:11;2.10;99.90
42913;DHT22;50720;54.324;18.558;2023-01-29T07:26:41;2.10;99.90
42913;DHT22;50720;54.324;18.558;2023-01-29T07:29:10;2.20;99.90
42913;DHT22;50720;54.324;18.558;2023-01-29T07:31:40;2.10;99.90
42913;DHT22;50720;54.324;18.558;2023-01-29T07:34:10;2.20;99.90
42913;DHT22;50720;54.324;18.558;2023-01-29T07:36:41;2.20;99.90
42913;DHT22;50720;54.324;18.558;2023-01-29T07:39:10;2.20;99.90
42913;DHT22;50720;54.324;18.558;2023-01-29T07:41:40;2.20;99.90
42913;DHT22;50720;54.324;18.558;2023-01-29T07:44:09;2.20;99.90
42913;DHT22;50720;54.324;18.558;2023-01-29T07:46:39;2.20;99.90
42913;DHT22;50720;54.324;18.558;2023-01-29T07:49:08;2.30;99.90
42913;DHT22;50720;54.324;18.558;2023-01-29T07:51:38;2.30;99.90
42913;DHT22;50720;54.324;18.558;2023-01-29T07:54:09;2.30;99.90
42913;DHT22;50720;54.324;18.558;2023-01-29T07:56:38;2.30;99.90
42913;DHT22;50720;54.324;18.558;2023-01-29T07:59:07;2.40;99.90
42913;DHT22;50720;54.324;18.558;2023-01-29T08:01:37;2.40;99.90
42913;DHT22;50720;54.324;18.558;2023-01-29T08:04:07;2.40;99.90
42913;DHT22;50720;54.324;18.558;2023-01-29T08:06:37;2.50;99.90
42913;DHT22;50720;54.324;18.558;2023-01-29T08:09:08;2.50;99.90
42913;DHT22;50720;54.324;18.558;2023-01-29T08:11:38;2.50;99.90
42913;DHT22;50720;54.324;18.558;2023-01-29T08:14:07;2.50;99.90
42913;DHT22;50720;54.324;18.558;2023-01-29T08:16:37;2.50;99.90
42913;DHT22;50720;54.324;18.558;2023-01-29T08:19:06;2.50;99.90
42913;DHT22;50720;54.324;18.558;2023-01-29T08:21:36;2.60;99.90
42913;DHT22;50720;54.324;18.558;2023-01-29T08:24:06;2.60;99.90
42913;DHT22;50720;54.324;18.558;2023-01-29T08:26:37;2.60;99.90
42913;DHT22;50720;54.324;18.558;2023-01-29T08:29:06;2.60;99.90
42913;DHT22;50720;54.324;18.558;2023-01-29T08:31:36;2.60;99.90
42913;DHT22;50720;54.324;18.558;2023-01-29T08:34:05;2.60;99.90
42913;DHT22;50720;54.324;18.558;2023-01-29T08:36:35;2.60;99.90
42913;DHT22;50720;54.324;18.558;2023-01-29T08:39:05;2.60;99.90
42913;DHT22;50720;54.324;18.558;2023-01-29T08:41:36;2.60;99.90
42913;DHT22;50720;54.324;18.558;2023-01-29T08:44:05;2.70;99.90
42913;DHT22;50720;54.324;18.558;2023-01-29T08:46:35;2.60;99.90
42913;DHT22;50720;54.324;18.558;2023-01-29T08:49:08;2.70;99.90
42913;DHT22;50720;54.324;18.558;2023-01-29T08:51:38;2.70;99.90
42913;DHT22;50720;54.324;18.558;2023-01-29T08:54:07;2.70;99.90
42913;DHT22;50720;54.324;18.558;2023-01-29T08:56:38;2.70;99.90
42913;DHT22;50720;54.324;18.558;2023-01-29T08:59:08;2.80;99.90
42913;DHT22;50720;54.324;18.558;2023-01-29T09:01:38;2.80;99.90
42913;DHT22;50720;54.324;18.558;2023-01-29T09:04:07;2.80;99.90
42913;DHT22;50720;54.324;18.558;2023-01-29T09:06:37;2.80;99.90
42913;DHT22;50720;54.324;18.558;2023-01-29T09:09:06;2.70;99.90
42913;DHT22;50720;54.324;18.558;2023-01-29T09:11:38;2.70;99.90
42913;DHT22;50720;54.324;18.558;2023-01-29T09:14:07;2.70;99.90
42913;DHT22;50720;54.324;18.558;2023-01-29T09:16:37;2.60;99.90
42913;DHT22;50720;54.324;18.558;2023-01-29T09:19:06;2.70;99.90
42913;DHT22;50720;54.324;18.558;2023-01-29T09:21:36;2.80;99.90
42913;DHT22;50720;54.324;18.558;2023-01-29T09:24:06;2.90;99.90
42913;DHT22;50720;54.324;18.558;2023-01-29T09:26:35;2.90;99.90
42913;DHT22;50720;54.324;18.558;2023-01-29T09:29:09;2.90;99.90
42913;DHT22;50720;54.324;18.558;2023-01-29T09:31:38;2.90;99.90
42913;DHT22;50720;54.324;18.558;2023-01-29T09:34:08;3.00;99.90
42913;DHT22;50720;54.324;18.558;2023-01-29T09:36:38;2.90;99.90
42913;DHT22;50720;54.324;18.558;2023-01-29T09:39:07;2.90;99.90
42913;DHT22;50720;54.324;18.558;2023-01-29T09:41:45;2.90;99.90
42913;DHT22;50720;54.324;18.558;2023-01-29T09:44:26;2.90;99.90
42913;DHT22;50720;54.324;18.558;2023-01-29T09:47:02;2.90;99.90
42913;DHT22;50720;54.324;18.558;2023-01-29T09:49:36;2.90;99.90
42913;DHT22;50720;54.324;18.558;2023-01-29T09:52:15;3.00;99.90
42913;DHT22;50720;54.324;18.558;2023-01-29T09:54:55;3.00;99.90
42913;DHT22;50720;54.324;18.558;2023-01-29T09:57:32;3.00;99.90
42913;DHT22;50720;54.324;18.558;2023-01-29T10:00:05;3.00;99.90
42913;DHT22;50720;54.324;18.558;2023-01-29T10:02:55;2.90;99.90
42913;DHT22;50720;54.324;18.558;2023-01-29T10:05:44;3.00;99.90
42913;DHT22;50720;54.324;18.558;2023-01-29T10:08:43;3.00;99.90
42913;DHT22;50720;54.324;18.558;2023-01-29T10:11:24;3.00;99.90
42913;DHT22;50720;54.324;18.558;2023-01-29T10:14:06;2.90;99.90
42913;DHT22;50720;54.324;18.558;2023-01-29T10:16:48;2.90;99.90
42913;DHT22;50720;54.324;18.558;2023-01-29T10:19:39;2.90;99.90
42913;DHT22;50720;54.324;18.558;2023-01-29T10:22:31;2.90;99.90
42913;DHT22;50720;54.324;18.558;2023-01-29T10:25:10;2.90;99.90
42913;DHT22;50720;54.324;18.558;2023-01-29T10:27:46;2.90;99.90
42913;DHT22;50720;54.324;18.558;2023-01-29T10:30:25;2.90;99.90
42913;DHT22;50720;54.324;18.558;2023-01-29T10:33:00;2.90;99.90
42913;DHT22;50720;54.324;18.558;2023-01-29T10:35:33;2.90;99.90
42913;DHT22;50720;54.324;18.558;2023-01-29T10:38:18;2.90;99.90
42913;DHT22;50720;54.324;18.558;2023-01-29T10:40:54;2.90;99.90
42913;DHT22;50720;54.324;18.558;2023-01-29T10:43:31;2.90;99.90
42913;DHT22;50720;54.324;18.558;2023-01-29T10:46:16;2.90;99.90
42913;DHT22;50720;54.324;18.558;2023-01-29T10:48:59;3.00;99.90
42913;DHT22;50720;54.324;18.558;2023-01-29T10:52:02;3.00;99.90
42913;DHT22;50720;54.324;18.558;2023-01-29T10:54:45;3.10;99.90
42913;DHT22;50720;54.324;18.558;2023-01-29T10:57:25;3.20;99.90
42913;DHT22;50720;54.324;18.558;2023-01-29T11:00:04;3.20;99.90
42913;DHT22;50720;54.324;18.558;2023-01-29T11:02:43;3.30;99.90
42913;DHT22;50720;54.324;18.558;2023-01-29T11:05:23;3.30;99.90
42913;DHT22;50720;54.324;18.558;2023-01-29T11:08:10;3.30;99.90
42913;DHT22;50720;54.324;18.558;2023-01-29T11:10:46;3.20;99.90
42913;DHT22;50720;54.324;18.558;2023-01-29T11:13:18;3.20;99.90
42913;DHT22;50720;54.324;18.558;2023-01-29T11:15:51;3.20;99.90
42913;DHT22;50720;54.324;18.558;2023-01-29T11:18:21;3.20;99.90
42913;DHT22;50720;54.324;18.558;2023-01-29T11:21:00;3.20;99.90
42913;DHT22;50720;54.324;18.558;2023-01-29T11:23:32;3.30;99.90
42913;DHT22;50720;54.324;18.558;2023-01-29T11:26:02;3.40;99.90
42913;DHT22;50720;54.324;18.558;2023-01-29T11:28:35;3.40;99.90
42913;DHT22;50720;54.324;18.558;2023-01-29T11:31:18;3.50;99.90
42913;DHT22;50720;54.324;18.558;2023-01-29T11:33:51;3.50;99.90
42913;DHT22;50720;54.324;18.558;2023-01-29T11:36:29;3.50;99.90
42913;DHT22;50720;54.324;18.558;2023-01-29T11:39:18;3.60;99.90
42913;DHT22;50720;54.324;18.558;2023-01-29T11:41:51;3.60;99.90
42913;DHT22;50720;54.324;18.558;2023-01-29T11:44:27;3.50;99.90
42913;DHT22;50720;54.324;18.558;2023-01-29T11:47:11;3.60;99.90
42913;DHT22;50720;54.324;18.558;2023-01-29T11:49:45;3.70;99.90
42913;DHT22;50720;54.324;18.558;2023-01-29T11:52:18;3.60;99.90
42913;DHT22;50720;54.324;18.558;2023-01-29T11:54:53;3.50;99.90
42913;DHT22;50720;54.324;18.558;2023-01-29T11:57:26;3.50;99.90
42913;DHT22;50720;54.324;18.558;2023-01-29T11:59:59;3.50;99.90
42913;DHT22;50720;54.324;18.558;2023-01-29T12:02:34;3.40;99.90
42913;DHT22;50720;54.324;18.558;2023-01-29T12:05:13;3.50;99.90
42913;DHT22;50720;54.324;18.558;2023-01-29T12:07:47;3.50;99.90
42913;DHT22;50720;54.324;18.558;2023-01-29T12:10:32;3.50;99.90
42913;DHT22;50720;54.324;18.558;2023-01-29T12:13:14;3.50;99.90
42913;DHT22;50720;54.324;18.558;2023-01-29T12:15:48;3.50;99.90
42913;DHT22;50720;54.324;18.558;2023-01-29T12:18:24;3.50;99.90
42913;DHT22;50720;54.324;18.558;2023-01-29T12:21:00;3.50;99.90
42913;DHT22;50720;54.324;18.558;2023-01-29T12:23:38;3.40;99.90
42913;DHT22;50720;54.324;18.558;2023-01-29T12:26:14;3.40;99.90
42913;DHT22;50720;54.324;18.558;2023-01-29T12:28:52;3.50;99.90
42913;DHT22;50720;54.324;18.558;2023-01-29T12:31:33;3.50;99.90
42913;DHT22;50720;54.324;18.558;2023-01-29T12:34:09;3.50;99.90
42913;DHT22;50720;54.324;18.558;2023-01-29T12:36:44;3.50;99.90
42913;DHT22;50720;54.324;18.558;2023-01-29T12:39:21;3.50;99.90
42913;DHT22;50720;54.324;18.558;2023-01-29T12:41:54;3.50;99.90
42913;DHT22;50720;54.324;18.558;2023-01-29T12:44:32;3.50;99.90
42913;DHT22;50720;54.324;18.558;2023-01-29T12:47:05;3.50;99.90
42913;DHT22;50720;54.324;18.558;2023-01-29T12:49:37;3.50;99.90
42913;DHT22;50720;54.324;18.558;2023-01-29T12:52:11;3.50;99.90
42913;DHT22;50720;54.324;18.558;2023-01-29T12:54:49;3.50;99.90
42913;DHT22;50720;54.324;18.558;2023-01-29T12:57:23;3.50;99.90
42913;DHT22;50720;54.324;18.558;2023-01-29T12:59:56;3.50;99.90
42913;DHT22;50720;54.324;18.558;2023-01-29T13:02:32;3.50;99.90
42913;DHT22;50720;54.324;18.558;2023-01-29T13:05:14;3.50;99.90
42913;DHT22;50720;54.324;18.558;2023-01-29T13:07:53;3.50;99.90
42913;DHT22;50720;54.324;18.558;2023-01-29T13:10:28;3.50;99.90
42913;DHT22;50720;54.324;18.558;2023-01-29T13:13:03;3.50;99.90
42913;DHT22;50720;54.324;18.558;2023-01-29T13:15:35;3.50;99.90
42913;DHT22;50720;54.324;18.558;2023-01-29T13:18:29;3.50;99.90
42913;DHT22;50720;54.324;18.558;2023-01-29T13:21:01;3.40;99.90
42913;DHT22;50720;54.324;18.558;2023-01-29T13:23:35;3.50;99.90
42913;DHT22;50720;54.324;18.558;2023-01-29T13:26:07;3.40;99.90
42913;DHT22;50720;54.324;18.558;2023-01-29T13:28:39;3.30;99.90
42913;DHT22;50720;54.324;18.558;2023-01-29T13:31:20;3.30;99.90
42913;DHT22;50720;54.324;18.558;2023-01-29T13:33:54;3.20;99.90
42913;DHT22;50720;54.324;18.558;2023-01-29T13:36:26;3.20;99.90
42913;DHT22;50720;54.324;18.558;2023-01-29T13:39:03;3.20;99.90
42913;DHT22;50720;54.324;18.558;2023-01-29T13:41:36;3.20;99.90
42913;DHT22;50720;54.324;18.558;2023-01-29T13:44:16;3.10;99.90
42913;DHT22;50720;54.324;18.558;2023-01-29T13:46:49;3.20;99.90
42913;DHT22;50720;54.324;18.558;2023-01-29T13:49:25;3.20;99.90
42913;DHT22;50720;54.324;18.558;2023-01-29T13:51:57;3.30;99.90
42913;DHT22;50720;54.324;18.558;2023-01-29T13:54:27;3.30;99.90
42913;DHT22;50720;54.324;18.558;2023-01-29T13:56:59;3.20;99.90
42913;DHT22;50720;54.324;18.558;2023-01-29T13:59:48;3.20;99.90
42913;DHT22;50720;54.324;18.558;2023-01-29T14:02:24;3.20;99.90
42913;DHT22;50720;54.324;18.558;2023-01-29T14:08:39;3.20;99.90
42913;DHT22;50720;54.324;18.558;2023-01-29T14:11:34;3.10;99.90
42913;DHT22;50720;54.324;18.558;2023-01-29T14:17:13;3.10;99.90
42913;DHT22;50720;54.324;18.558;2023-01-29T14:19:46;3.10;99.90
42913;DHT22;50720;54.324;18.558;2023-01-29T14:22:22;3.10;99.90
42913;DHT22;50720;54.324;18.558;2023-01-29T14:24:54;3.10;99.90
42913;DHT22;50720;54.324;18.558;2023-01-29T14:27:24;3.10;99.90
42913;DHT22;50720;54.324;18.558;2023-01-29T14:30:00;3.10;99.90
42913;DHT22;50720;54.324;18.558;2023-01-29T14:32:31;3.10;99.90
42913;DHT22;50720;54.324;18.558;2023-01-29T14:35:03;3.10;99.90
42913;DHT22;50720;54.324;18.558;2023-01-29T14:37:35;3.10;99.90
42913;DHT22;50720;54.324;18.558;2023-01-29T14:40:17;3.20;99.90
42913;DHT22;50720;54.324;18.558;2023-01-29T14:42:59;3.20;99.90
42913;DHT22;50720;54.324;18.558;2023-01-29T14:45:32;3.20;99.90
42913;DHT22;50720;54.324;18.558;2023-01-29T14:51:04;3.20;99.90
42913;DHT22;50720;54.324;18.558;2023-01-29T14:53:53;3.30;99.90
42913;DHT22;50720;54.324;18.558;2023-01-29T14:56:30;3.20;99.90
42913;DHT22;50720;54.324;18.558;2023-01-29T14:59:14;3.20;99.90
42913;DHT22;50720;54.324;18.558;2023-01-29T15:01:51;3.20;99.90
42913;DHT22;50720;54.324;18.558;2023-01-29T15:04:25;3.30;99.90
42913;DHT22;50720;54.324;18.558;2023-01-29T15:07:00;3.30;99.90
42913;DHT22;50720;54.324;18.558;2023-01-29T15:09:37;3.30;99.90
42913;DHT22;50720;54.324;18.558;2023-01-29T15:12:16;3.20;99.90
42913;DHT22;50720;54.324;18.558;2023-01-29T15:14:51;3.20;99.90
42913;DHT22;50720;54.324;18.558;2023-01-29T15:17:28;3.20;99.90
42913;DHT22;50720;54.324;18.558;2023-01-29T15:19:59;3.10;99.90
42913;DHT22;50720;54.324;18.558;2023-01-29T15:22:28;3.10;99.90
42913;DHT22;50720;54.324;18.558;2023-01-29T15:25:05;3.10;99.90
42913;DHT22;50720;54.324;18.558;2023-01-29T15:27:35;3.10;99.90
42913;DHT22;50720;54.324;18.558;2023-01-29T15:30:15;3.10;99.90
42913;DHT22;50720;54.324;18.558;2023-01-29T15:32:47;3.10;99.90
42913;DHT22;50720;54.324;18.558;2023-01-29T15:35:28;3.10;99.90
42913;DHT22;50720;54.324;18.558;2023-01-29T15:38:00;3.20;99.90
42913;DHT22;50720;54.324;18.558;2023-01-29T15:40:31;3.20;99.90
42913;DHT22;50720;54.324;18.558;2023-01-29T15:43:01;3.20;99.90
42913;DHT22;50720;54.324;18.558;2023-01-29T15:45:32;3.20;99.90
42913;DHT22;50720;54.324;18.558;2023-01-29T15:48:06;3.20;99.90
42913;DHT22;50720;54.324;18.558;2023-01-29T15:50:40;3.20;99.90
42913;DHT22;50720;54.324;18.558;2023-01-29T15:53:16;3.20;99.90
42913;DHT22;50720;54.324;18.558;2023-01-29T15:55:46;3.30;99.90
42913;DHT22;50720;54.324;18.558;2023-01-29T15:58:21;3.30;99.90
42913;DHT22;50720;54.324;18.558;2023-01-29T16:00:54;3.30;99.90
42913;DHT22;50720;54.324;18.558;2023-01-29T16:03:30;3.30;99.90
42913;DHT22;50720;54.324;18.558;2023-01-29T16:06:01;3.30;99.90
42913;DHT22;50720;54.324;18.558;2023-01-29T16:08:34;3.30;99.90
42913;DHT22;50720;54.324;18.558;2023-01-29T16:11:05;3.30;99.90
42913;DHT22;50720;54.324;18.558;2023-01-29T16:13:38;3.30;99.90
42913;DHT22;50720;54.324;18.558;2023-01-29T16:16:19;3.30;99.90
42913;DHT22;50720;54.324;18.558;2023-01-29T16:18:52;3.30;99.90
42913;DHT22;50720;54.324;18.558;2023-01-29T16:21:30;3.30;99.90
42913;DHT22;50720;54.324;18.558;2023-01-29T16:24:03;3.30;99.90
42913;DHT22;50720;54.324;18.558;2023-01-29T16:26:41;3.30;99.90
42913;DHT22;50720;54.324;18.558;2023-01-29T16:29:13;3.30;99.90